Time;durP1;ratioP1;P1;durP2;ratioP2;P2;SDS_P1;SDS_P2;PMS_P1;PMS_P2;Temp;Humidity;BMP_temperature;BMP_pressure;BME280_temperature;BME280_humidity;BME280_pressure;Samples;Min_cycle;Max_cycle;Signal;HPM_P1;HPM_P2
2022/09/26 00:01:35;;;;;;;1.17;0.50;;;;;;;13.62;98.38;99968.38;5048199;28;20088;-45
2022/09/26 00:04:09;;;;;;;1.52;0.63;;;;;;;13.63;98.32;99936.59;5030569;28;20099;-47
2022/09/26 00:06:36;;;;;;;4.50;0.55;;;;;;;13.63;98.07;99939.38;5051759;28;20067;-43
2022/09/26 00:09:03;;;;;;;7.75;0.73;;;;;;;13.59;97.47;99919.06;5052385;28;20470;-44
2022/09/26 00:11:32;;;;;;;2.88;1.13;;;;;;;13.52;97.34;99902.34;5051157;28;20566;-46
2022/09/26 00:14:03;;;;;;;6.78;1.67;;;;;;;13.48;96.89;99901.50;5020837;28;20045;-44
2022/09/26 00:16:31;;;;;;;2.92;0.70;;;;;;;13.47;96.98;99902.69;5052132;28;20060;-47
2022/09/26 00:18:59;;;;;;;2.17;0.80;;;;;;;13.45;96.96;99910.59;5034496;28;20463;-43
2022/09/26 00:21:28;;;;;;;3.65;0.82;;;;;;;13.47;96.97;99911.03;5052268;28;20387;-49
2022/09/26 00:23:57;;;;;;;3.20;0.50;;;;;;;13.49;97.25;99924.53;5051992;28;20052;-45
2022/09/26 00:26:25;;;;;;;2.75;0.60;;;;;;;13.53;97.00;99931.72;5051936;28;20041;-47
2022/09/26 00:28:54;;;;;;;2.83;0.65;;;;;;;13.54;96.94;99916.66;5033979;28;20049;-44
2022/09/26 00:31:24;;;;;;;3.65;0.60;;;;;;;13.55;96.90;99940.50;5051177;28;20053;-44
2022/09/26 00:33:52;;;;;;;3.28;0.85;;;;;;;13.52;96.82;99969.06;5050278;28;20056;-43
2022/09/26 00:36:18;;;;;;;3.05;0.73;;;;;;;13.53;96.70;99962.31;5033226;28;20112;-49
2022/09/26 00:38:45;;;;;;;5.07;0.93;;;;;;;13.52;96.31;99966.28;5049059;28;20055;-47
2022/09/26 00:41:13;;;;;;;6.05;0.90;;;;;;;13.50;95.82;99967.88;5051707;28;20383;-46
2022/09/26 00:43:47;;;;;;;2.25;0.88;;;;;;;13.44;95.58;99964.63;5051662;28;20076;-43
2022/09/26 00:46:26;;;;;;;5.55;1.48;;;;;;;13.36;95.10;99972.09;5049988;28;20049;-46
2022/09/26 00:49:11;;;;;;;4.53;0.90;;;;;;;13.30;95.09;99972.81;5033590;28;20041;-44
2022/09/26 00:51:41;;;;;;;14.13;2.08;;;;;;;13.25;94.38;99978.72;5048239;28;20051;-46
2022/09/26 00:54:11;;;;;;;5.85;1.38;;;;;;;13.23;94.22;99967.19;5031082;28;20049;-45
2022/09/26 00:56:41;;;;;;;7.30;1.35;;;;;;;13.23;93.86;99950.53;5051383;28;20059;-45
2022/09/26 00:59:17;;;;;;;3.28;1.10;;;;;;;13.21;93.28;99937.00;5050158;28;20048;-43
2022/09/26 01:01:44;;;;;;;3.88;1.52;;;;;;;13.20;92.65;99935.41;5034056;28;20057;-46
2022/09/26 01:04:12;;;;;;;12.25;2.63;;;;;;;13.20;92.26;99940.16;5051051;28;20053;-46
2022/09/26 01:06:39;;;;;;;8.18;1.30;;;;;;;13.19;91.48;99938.56;5051388;28;20136;-44
2022/09/26 01:09:07;;;;;;;10.35;2.17;;;;;;;13.17;90.69;99943.72;5049764;28;20494;-47
2022/09/26 01:11:40;;;;;;;8.45;1.58;;;;;;;13.14;90.68;99950.03;5046038;28;20403;-44
2022/09/26 01:14:09;;;;;;;8.45;1.02;;;;;;;13.11;90.34;99953.56;5050411;28;20045;-45
2022/09/26 01:16:38;;;;;;;7.00;1.35;;;;;;;13.10;90.17;99963.91;5049605;28;20048;-47
2022/09/26 01:19:19;;;;;;;2.70;1.05;;;;;;;13.12;89.86;99963.50;5051244;28;20045;-49
2022/09/26 01:22:23;;;;;;;5.32;1.83;;;;;;;13.13;89.64;99959.56;5051326;28;20136;-50
2022/09/26 01:25:32;;;;;;;5.57;1.27;;;;;;;13.13;89.32;99956.78;5051145;28;20061;-45
2022/09/26 01:28:17;;;;;;;6.88;1.40;;;;;;;13.11;88.66;99950.78;5030028;28;20052;-43
2022/09/26 01:30:55;;;;;;;7.22;1.30;;;;;;;13.13;88.27;99940.09;5031168;28;20045;-44
2022/09/26 01:33:24;;;;;;;9.93;1.50;;;;;;;13.13;87.99;99945.66;5048419;28;20041;-43
2022/09/26 01:36:21;;;;;;;9.88;2.30;;;;;;;13.13;87.55;99956.78;5051222;28;20045;-45
2022/09/26 01:38:55;;;;;;;9.73;2.03;;;;;;;13.12;87.01;99963.50;5049414;28;20045;-44
2022/09/26 01:41:41;;;;;;;8.35;1.63;;;;;;;13.09;86.60;99951.19;5047708;28;20041;-44
2022/09/26 01:44:17;;;;;;;9.13;2.60;;;;;;;13.04;86.63;99959.03;5050925;28;20041;-48
2022/09/26 01:46:51;;;;;;;9.30;2.10;;;;;;;12.97;86.43;99953.41;5050721;28;20055;-43
2022/09/26 01:49:25;;;;;;;13.45;2.92;;;;;;;12.89;86.67;99932.28;5050532;28;20045;-44
2022/09/26 01:52:06;;;;;;;9.25;1.65;;;;;;;12.84;86.94;99931.41;5050597;28;20053;-44
2022/09/26 01:54:46;;;;;;;8.63;2.33;;;;;;;12.78;87.10;99930.19;5050319;28;20735;-43
2022/09/26 01:57:27;;;;;;;17.77;2.63;;;;;;;12.74;87.10;99943.22;5050333;28;20055;-49
2022/09/26 02:00:00;;;;;;;9.30;3.08;;;;;;;12.70;87.35;99939.59;5050229;28;20398;-43
2022/09/26 02:02:32;;;;;;;14.88;2.80;;;;;;;12.69;87.05;99945.53;5050475;28;20159;-46
2022/09/26 02:05:06;;;;;;;14.00;2.08;;;;;;;12.66;87.00;99947.09;5050328;28;20068;-45
2022/09/26 02:07:42;;;;;;;16.73;2.55;;;;;;;12.61;86.65;99952.97;5050155;28;20463;-47
2022/09/26 02:10:17;;;;;;;14.07;4.65;;;;;;;12.55;86.74;99945.38;5049299;28;20052;-43
2022/09/26 02:12:53;;;;;;;15.32;4.72;;;;;;;12.50;86.63;99963.13;5050058;28;20070;-44
2022/09/26 02:15:25;;;;;;;22.60;4.20;;;;;;;12.48;86.45;99943.28;5050045;28;20049;-50
2022/09/26 02:18:00;;;;;;;15.05;3.78;;;;;;;12.45;86.24;99944.03;5049849;28;20063;-45
2022/09/26 02:20:33;;;;;;;19.27;3.40;;;;;;;12.41;86.11;99948.75;5049948;28;20132;-44
2022/09/26 02:23:03;;;;;;;19.90;4.25;;;;;;;12.39;85.70;99948.31;5050063;28;20530;-47
2022/09/26 02:25:31;;;;;;;18.67;4.10;;;;;;;12.37;85.74;99933.22;5049801;28;20040;-43
2022/09/26 02:27:59;;;;;;;24.17;4.75;;;;;;;12.34;85.54;99937.53;5031521;28;20048;-46
2022/09/26 02:30:25;;;;;;;29.48;4.00;;;;;;;12.35;85.41;99930.84;5049665;28;20057;-43
2022/09/26 02:32:52;;;;;;;22.90;4.50;;;;;;;12.37;85.27;99941.53;5049637;28;20388;-44
2022/09/26 02:38:06;;;;;;;18.50;5.20;;;;;;;12.39;84.96;99937.22;5049076;28;20388;-44
2022/09/26 02:40:41;;;;;;;28.33;6.85;;;;;;;12.40;84.68;99935.25;5047873;28;20083;-45
2022/09/26 02:43:33;;;;;;;28.77;4.45;;;;;;;12.41;84.51;99937.66;5040827;28;20518;-43
2022/09/26 02:46:39;;;;;;;20.73;4.22;;;;;;;12.41;84.18;99937.66;5046324;28;20064;-44
2022/09/26 02:49:20;;;;;;;27.35;5.75;;;;;;;12.37;83.89;99919.34;5035175;28;20057;-45
2022/09/26 02:52:12;;;;;;;52.45;7.80;;;;;;;12.32;83.68;99914.94;5048763;28;20440;-44
2022/09/26 02:54:52;;;;;;;31.63;5.13;;;;;;;12.27;83.43;99920.00;5049303;28;20044;-44
2022/09/26 02:57:25;;;;;;;20.55;4.57;;;;;;;12.21;83.21;99917.56;5048796;28;20495;-48
2022/09/26 03:00:08;;;;;;;24.50;5.68;;;;;;;12.16;83.51;99936.50;5048672;28;20521;-45
2022/09/26 03:02:41;;;;;;;26.25;4.60;;;;;;;12.16;83.28;99937.31;5086490;22;20061;-46
2022/09/26 03:05:20;;;;;;;27.83;6.10;;;;;;;12.16;83.24;99936.50;5049104;28;20495;-44
2022/09/26 03:07:55;;;;;;;27.40;5.05;;;;;;;12.16;83.39;99930.97;5028162;28;20069;-43
2022/09/26 03:10:26;;;;;;;22.35;5.07;;;;;;;12.17;83.13;99933.38;5041633;28;20124;-43
2022/09/26 03:12:56;;;;;;;23.80;6.18;;;;;;;12.15;83.11;99924.59;5048989;28;20041;-43
2022/09/26 03:15:25;;;;;;;32.38;5.40;;;;;;;12.14;82.88;99927.75;5048448;28;20491;-45
2022/09/26 03:17:53;;;;;;;32.22;6.82;;;;;;;12.12;82.73;99925.38;5029045;28;20049;-48
2022/09/26 03:20:22;;;;;;;33.05;5.97;;;;;;;12.10;82.46;99922.16;5028693;28;20056;-43
2022/09/26 03:22:49;;;;;;;28.63;5.88;;;;;;;12.10;82.40;99927.72;5044180;28;20107;-44
2022/09/26 03:25:23;;;;;;;24.23;5.00;;;;;;;12.09;82.41;99925.31;5033428;28;20084;-45
2022/09/26 03:27:51;;;;;;;31.33;5.15;;;;;;;12.07;82.32;99930.44;5036416;28;20048;-44
2022/09/26 03:30:20;;;;;;;40.05;8.15;;;;;;;12.06;82.08;99926.06;5046563;28;20040;-44
2022/09/26 03:32:49;;;;;;;24.20;5.53;;;;;;;12.06;82.33;99926.06;5049106;28;20143;-43
2022/09/26 03:35:16;;;;;;;29.27;5.85;;;;;;;12.05;82.32;99930.00;5048254;28;20051;-48
2022/09/26 03:37:46;;;;;;;29.67;4.97;;;;;;;12.05;82.06;99941.09;5033039;28;20084;-43
2022/09/26 03:40:14;;;;;;;32.17;5.60;;;;;;;12.02;82.00;99947.44;5027934;28;20049;-44
2022/09/26 03:42:42;;;;;;;40.80;6.28;;;;;;;12.00;81.55;99947.78;5037477;28;20053;-43
2022/09/26 03:45:09;;;;;;;26.80;6.55;;;;;;;12.00;81.49;99945.00;5048816;28;20120;-46
2022/09/26 03:47:40;;;;;;;30.83;6.32;;;;;;;11.99;80.97;99942.63;5040805;28;20055;-43
2022/09/26 03:50:08;;;;;;;30.35;5.70;;;;;;;11.98;80.79;99941.00;5027317;28;20053;-44
2022/09/26 03:52:35;;;;;;;29.70;6.93;;;;;;;11.96;80.67;99943.38;5035698;28;20394;-46
2022/09/26 03:55:03;;;;;;;25.52;6.10;;;;;;;11.93;80.36;99946.88;5046957;28;20114;-43
2022/09/26 03:57:30;;;;;;;41.55;8.77;;;;;;;11.88;80.19;99939.69;5029701;28;20499;-43
2022/09/26 03:59:57;;;;;;;34.75;7.78;;;;;;;11.85;79.92;99936.84;5034413;28;20041;-43
2022/09/26 04:02:23;;;;;;;44.42;9.07;;;;;;;11.81;80.07;99938.78;5043093;28;20060;-43
2022/09/26 04:04:50;;;;;;;43.72;8.18;;;;;;;11.78;79.80;99936.75;5048344;28;20636;-43
2022/09/26 04:07:17;;;;;;;39.25;6.95;;;;;;;11.74;79.57;99931.13;5048125;28;20521;-43
2022/09/26 04:09:44;;;;;;;34.75;8.30;;;;;;;11.72;79.38;99935.47;5048218;28;20053;-43
2022/09/26 04:12:10;;;;;;;37.90;6.60;;;;;;;11.68;79.33;99940.91;5048283;28;20048;-43
2022/09/26 04:14:38;;;;;;;38.65;8.75;;;;;;;11.68;79.06;99940.09;5048457;28;20072;-43
2022/09/26 04:17:05;;;;;;;47.60;9.23;;;;;;;11.68;78.98;99945.66;5047756;28;20402;-48
2022/09/26 04:19:32;;;;;;;42.03;7.72;;;;;;;11.66;78.82;99940.47;5048190;28;20041;-43
2022/09/26 04:21:59;;;;;;;36.58;9.15;;;;;;;11.61;78.15;99922.19;5048132;28;20556;-43
2022/09/26 04:24:26;;;;;;;36.63;6.80;;;;;;;11.56;78.02;99911.44;5047940;28;20045;-43
2022/09/26 04:26:53;;;;;;;41.85;6.50;;;;;;;11.49;77.76;99924.38;5047972;28;20049;-43
2022/09/26 04:29:20;;;;;;;39.58;7.53;;;;;;;11.43;77.94;99918.34;5046371;28;20394;-48
2022/09/26 04:31:47;;;;;;;27.83;6.10;;;;;;;11.37;77.72;99930.09;5029387;28;20033;-44
2022/09/26 04:34:14;;;;;;;38.75;8.30;;;;;;;11.30;77.25;99925.25;5043483;28;20051;-43
2022/09/26 04:36:42;;;;;;;33.97;7.80;;;;;;;11.27;77.11;99920.44;5048120;28;20044;-43
2022/09/26 04:39:09;;;;;;;27.10;6.95;;;;;;;11.26;77.05;99910.53;5047838;28;20411;-43
2022/09/26 04:41:38;;;;;;;31.65;7.15;;;;;;;11.20;76.92;99912.00;5047969;28;20111;-45
2022/09/26 04:44:04;;;;;;;37.78;6.40;;;;;;;11.16;76.84;99900.06;5048078;28;20411;-44
2022/09/26 04:46:32;;;;;;;20.38;4.82;;;;;;;11.12;76.72;99890.09;5047746;28;20053;-44
2022/09/26 04:48:59;;;;;;;34.88;7.47;;;;;;;11.08;76.67;99903.88;5030440;28;20049;-44
2022/09/26 04:51:30;;;;;;;31.98;7.85;;;;;;;11.04;76.45;99900.22;5031678;28;20128;-43
2022/09/26 04:53:57;;;;;;;28.30;6.13;;;;;;;11.02;76.58;99905.34;5038995;28;20111;-43
2022/09/26 04:56:27;;;;;;;24.38;7.05;;;;;;;10.98;76.39;99905.28;5051439;28;20135;-43
2022/09/26 04:58:55;;;;;;;36.28;6.15;;;;;;;10.94;76.51;99903.63;5051457;28;20055;-43
2022/09/26 05:01:22;;;;;;;29.45;7.85;;;;;;;10.92;76.34;99901.22;5050347;28;20063;-43
2022/09/26 05:03:50;;;;;;;39.22;7.03;;;;;;;10.91;76.23;99901.56;5051551;28;20095;-43
2022/09/26 05:06:17;;;;;;;31.33;6.53;;;;;;;10.87;76.28;99914.56;5050241;28;20045;-43
2022/09/26 05:08:47;;;;;;;27.92;6.05;;;;;;;10.84;76.02;99912.53;5051144;28;20059;-49
2022/09/26 05:11:16;;;;;;;26.30;7.47;;;;;;;10.79;76.04;99919.19;5051322;28;20082;-49
2022/09/26 05:13:43;;;;;;;25.20;7.40;;;;;;;10.78;76.10;99917.56;5051380;28;20047;-43
2022/09/26 05:16:11;;;;;;;29.63;6.30;;;;;;;10.75;76.13;99923.06;5051823;28;20045;-44
2022/09/26 05:18:39;;;;;;;31.23;6.10;;;;;;;10.70;76.11;99921.34;5051541;28;20053;-44
2022/09/26 05:21:06;;;;;;;37.20;6.50;;;;;;;10.67;76.12;99924.06;5051389;28;20063;-43
2022/09/26 05:26:21;;;;;;;39.97;7.75;;;;;;;10.58;76.30;99937.31;5043186;28;20048;-46
2022/09/26 05:28:56;;;;;;;32.83;8.02;;;;;;;10.57;76.41;99946.78;5050355;28;20095;-44
2022/09/26 05:31:26;;;;;;;32.63;6.45;;;;;;;10.56;76.41;99953.50;5048942;28;20049;-45
2022/09/26 05:33:55;;;;;;;41.05;6.53;;;;;;;10.55;76.41;99954.66;5049877;28;20599;-43
2022/09/26 05:36:24;;;;;;;23.60;5.65;;;;;;;10.56;76.46;99953.50;5041862;28;20491;-44
2022/09/26 05:38:51;;;;;;;30.27;6.93;;;;;;;10.58;76.34;99965.00;5050678;28;20049;-45
2022/09/26 05:41:19;;;;;;;32.97;5.93;;;;;;;10.60;76.42;99963.47;5042015;28;20088;-44
2022/09/26 05:43:46;;;;;;;23.80;5.72;;;;;;;10.61;76.33;99978.94;5029453;28;20490;-43
2022/09/26 05:46:14;;;;;;;38.45;7.72;;;;;;;10.67;76.41;99979.44;5050486;28;20053;-44
2022/09/26 05:48:41;;;;;;;39.95;7.18;;;;;;;10.72;76.62;99979.16;5050880;28;20080;-50
2022/09/26 05:51:14;;;;;;;27.02;5.78;;;;;;;10.74;76.47;99985.91;5050311;28;20072;-43
2022/09/26 05:53:43;;;;;;;27.13;6.30;;;;;;;10.77;76.28;99993.50;5050555;28;20045;-44
2022/09/26 05:56:11;;;;;;;32.60;8.45;;;;;;;10.80;76.32;99983.66;5050407;28;20057;-43
2022/09/26 05:58:44;;;;;;;33.85;5.53;;;;;;;10.80;76.19;99986.44;5050038;28;20264;-44
2022/09/26 06:01:13;;;;;;;23.50;5.55;;;;;;;10.78;76.14;99994.28;5050471;28;20048;-43
2022/09/26 06:03:42;;;;;;;25.77;6.75;;;;;;;10.79;76.06;99995.91;5034284;28;20049;-43
2022/09/26 06:06:17;;;;;;;24.63;5.40;;;;;;;10.79;76.01;100001.44;5031544;28;20048;-51
2022/09/26 06:08:44;;;;;;;32.92;7.07;;;;;;;10.80;76.00;99998.28;5047692;28;20059;-43
2022/09/26 06:11:17;;;;;;;23.60;4.35;;;;;;;10.81;76.08;99988.03;5050089;28;20138;-44
2022/09/26 06:13:44;;;;;;;30.23;4.75;;;;;;;10.81;75.88;99988.81;5030653;28;20503;-44
2022/09/26 06:16:18;;;;;;;29.08;6.40;;;;;;;10.80;75.81;99991.97;5035595;28;20170;-48
2022/09/26 06:18:46;;;;;;;24.35;4.55;;;;;;;10.74;75.79;100013.59;5049968;28;20449;-43
2022/09/26 06:21:16;;;;;;;19.88;4.13;;;;;;;10.69;75.99;100008.38;5049942;28;20457;-44
2022/09/26 06:23:43;;;;;;;25.02;5.47;;;;;;;10.67;76.04;100012.66;5046404;28;20075;-43
2022/09/26 06:26:14;;;;;;;19.40;4.40;;;;;;;10.64;76.08;100014.19;5029980;28;20045;-43
2022/09/26 06:28:41;;;;;;;38.97;5.30;;;;;;;10.60;76.06;100009.72;5029381;28;20053;-43
2022/09/26 06:31:13;;;;;;;28.88;6.07;;;;;;;10.57;76.08;100022.31;5029428;28;20053;-42
2022/09/26 06:33:40;;;;;;;21.55;5.28;;;;;;;10.55;76.12;100032.16;5049291;28;20064;-43
2022/09/26 06:36:09;;;;;;;22.90;5.63;;;;;;;10.58;76.25;100039.75;5035572;28;20042;-43
2022/09/26 06:38:37;;;;;;;28.00;5.25;;;;;;;10.61;76.31;100044.56;5037545;28;20398;-46
2022/09/26 06:41:06;;;;;;;20.80;6.18;;;;;;;10.63;76.36;100042.22;5038139;28;20053;-45
2022/09/26 06:43:33;;;;;;;29.60;6.35;;;;;;;10.66;76.26;100049.81;5041098;28;20072;-43
2022/09/26 06:46:00;;;;;;;24.83;6.05;;;;;;;10.71;76.26;100043.97;5049351;28;20051;-43
2022/09/26 06:48:26;;;;;;;22.70;6.75;;;;;;;10.77;76.25;100043.34;5047911;28;20490;-43
2022/09/26 06:50:55;;;;;;;25.75;4.25;;;;;;;10.86;76.29;100040.34;5029871;28;20049;-43
2022/09/26 06:53:22;;;;;;;21.38;5.43;;;;;;;10.93;76.49;100035.75;5035229;28;20037;-44
2022/09/26 06:55:49;;;;;;;27.90;5.05;;;;;;;10.98;76.33;100034.66;5044435;28;20053;-45
2022/09/26 06:58:20;;;;;;;24.63;5.32;;;;;;;11.02;76.34;100032.75;5047120;28;20063;-42
2022/09/26 07:00:47;;;;;;;25.90;5.75;;;;;;;11.04;76.40;100024.88;5034799;28;20148;-51
2022/09/26 07:03:14;;;;;;;19.95;4.70;;;;;;;11.06;76.41;100033.66;5041381;28;20045;-43
2022/09/26 07:05:44;;;;;;;27.95;4.18;;;;;;;11.08;76.57;100025.75;5042028;28;20073;-43
2022/09/26 07:08:10;;;;;;;24.20;5.63;;;;;;;11.12;76.62;100026.63;5048677;28;20090;-43
2022/09/26 07:10:37;;;;;;;17.02;4.05;;;;;;;11.15;76.47;100034.19;5048924;28;20040;-43
2022/09/26 07:13:06;;;;;;;17.50;4.65;;;;;;;11.17;76.22;100031.88;5043277;28;20041;-43
2022/09/26 07:15:35;;;;;;;17.83;5.57;;;;;;;11.19;76.28;100034.28;5046089;28;20045;-42
2022/09/26 07:18:05;;;;;;;18.60;4.00;;;;;;;11.18;76.35;100041.78;5048266;28;20140;-43
2022/09/26 07:20:36;;;;;;;18.95;3.80;;;;;;;11.18;76.41;100052.06;5044596;28;20049;-42
2022/09/26 07:23:07;;;;;;;28.15;5.78;;;;;;;11.26;76.58;100068.47;5034456;28;20136;-44
2022/09/26 07:25:34;;;;;;;22.77;5.85;;;;;;;11.32;76.24;100055.91;5042816;28;20057;-49
2022/09/26 07:28:00;;;;;;;21.35;3.65;;;;;;;11.31;76.26;100056.28;5040402;28;20486;-43
2022/09/26 07:30:27;;;;;;;20.20;5.45;;;;;;;11.25;76.18;100058.53;5043879;28;20053;-47
2022/09/26 07:33:01;;;;;;;21.85;4.03;;;;;;;11.19;76.17;100060.03;5046658;28;20055;-42
2022/09/26 07:35:34;;;;;;;18.85;5.43;;;;;;;11.15;76.05;100072.19;5048606;28;20045;-42
2022/09/26 07:38:03;;;;;;;15.30;3.55;;;;;;;11.10;76.14;100076.06;5044813;28;20080;-42
2022/09/26 07:40:30;;;;;;;14.57;3.00;;;;;;;11.06;76.10;100072.41;5039194;28;20041;-43
2022/09/26 07:43:00;;;;;;;14.10;3.45;;;;;;;11.02;76.24;100080.66;5045303;28;20040;-46
2022/09/26 07:51:31;;;;;;;17.70;3.92;;;;;;;11.07;76.03;100098.94;5013552;28;20128;-42
2022/09/26 07:53:58;;;;;;;18.83;2.78;;;;;;;11.07;75.78;100098.94;5046969;28;20049;-44
2022/09/26 07:56:24;;;;;;;13.60;3.45;;;;;;;11.10;75.92;100117.59;5042560;28;20049;-43
2022/09/26 07:58:54;;;;;;;13.10;3.08;;;;;;;11.10;75.76;100123.16;5041154;28;20041;-43
2022/09/26 08:01:20;;;;;;;19.50;4.32;;;;;;;11.10;75.96;100117.59;5034160;28;20057;-46
2022/09/26 08:03:47;;;;;;;20.92;3.47;;;;;;;11.13;75.82;100116.06;5025317;28;20521;-44
2022/09/26 08:06:19;;;;;;;21.17;4.47;;;;;;;11.18;75.85;100127.66;5052860;28;20052;-42
2022/09/26 08:08:47;;;;;;;21.30;4.05;;;;;;;11.24;75.81;100123.44;5028884;28;20099;-42
2022/09/26 08:11:15;;;;;;;18.83;4.45;;;;;;;11.32;75.83;100118.84;5027019;28;20091;-42
2022/09/26 08:13:43;;;;;;;12.45;2.90;;;;;;;11.36;75.68;100116.94;5037613;28;20050;-42
2022/09/26 08:16:12;;;;;;;14.88;4.40;;;;;;;11.35;75.34;100113.38;5039723;28;20041;-43
2022/09/26 08:18:39;;;;;;;14.95;2.63;;;;;;;11.36;75.25;100117.75;5041339;28;20103;-42
2022/09/26 08:21:06;;;;;;;14.63;2.13;;;;;;;11.38;74.85;100117.41;5036028;28;20059;-43
2022/09/26 08:23:33;;;;;;;14.15;2.60;;;;;;;11.41;74.76;100117.44;5044700;28;20041;-43
2022/09/26 08:26:05;;;;;;;16.95;2.50;;;;;;;11.43;74.82;100108.78;5043841;28;20055;-43
2022/09/26 08:28:33;;;;;;;15.73;2.28;;;;;;;11.45;74.47;100107.25;5038305;28;20504;-44
2022/09/26 08:31:01;;;;;;;13.52;2.45;;;;;;;11.48;74.60;100100.97;5045365;28;20053;-49
2022/09/26 08:33:28;;;;;;;15.00;3.15;;;;;;;11.55;74.50;100112.19;5048955;28;20045;-45
2022/09/26 08:36:02;;;;;;;13.48;2.47;;;;;;;11.59;74.41;100113.06;5038207;28;20128;-44
2022/09/26 08:38:29;;;;;;;12.20;2.63;;;;;;;11.66;74.33;100128.22;5043407;28;20473;-47
2022/09/26 08:41:12;;;;;;;15.15;3.05;;;;;;;11.71;74.17;100130.72;5046534;28;20063;-43
2022/09/26 08:43:44;;;;;;;16.17;3.65;;;;;;;11.75;73.98;100126.06;5050360;28;20063;-43
2022/09/26 08:49:38;;;;;;;13.43;2.35;;;;;;;11.90;74.45;100141.78;5032800;28;20403;-44
2022/09/26 08:52:28;;;;;;;17.27;4.88;;;;;;;12.01;74.88;100145.56;5046794;28;20088;-44
2022/09/26 08:54:58;;;;;;;17.50;3.45;;;;;;;12.16;75.62;100139.06;5043015;28;20486;-46
2022/09/26 08:57:40;;;;;;;13.50;3.20;;;;;;;12.35;75.64;100143.75;5044495;28;20033;-44
2022/09/26 09:00:21;;;;;;;19.05;2.90;;;;;;;12.50;76.17;100138.06;5037746;28;20037;-46
2022/09/26 09:02:56;;;;;;;16.23;2.38;;;;;;;12.71;76.62;100152.28;5046295;28;20157;-45
2022/09/26 09:05:47;;;;;;;13.93;2.80;;;;;;;12.97;76.04;100151.47;5025684;28;20049;-44
2022/09/26 09:08:20;;;;;;;17.67;2.30;;;;;;;13.29;76.89;100155.50;5035519;28;20041;-46
2022/09/26 09:11:12;;;;;;;18.10;4.20;;;;;;;13.70;76.38;100148.06;5038303;28;20044;-44
2022/09/26 09:13:47;;;;;;;14.43;3.83;;;;;;;14.56;76.12;100158.84;5036883;28;20530;-45
2022/09/26 09:16:26;;;;;;;14.48;3.35;;;;;;;15.74;74.19;100167.50;5048651;28;20120;-45
2022/09/26 09:19:33;;;;;;;18.58;3.22;;;;;;;16.89;70.46;100170.84;5047943;28;20095;-44
2022/09/26 09:22:12;;;;;;;17.15;2.58;;;;;;;17.86;66.75;100175.72;5034569;28;20049;-50
2022/09/26 09:25:02;;;;;;;10.93;2.53;;;;;;;18.78;64.37;100171.09;5046241;28;20157;-46
2022/09/26 09:28:00;;;;;;;16.65;2.67;;;;;;;19.53;61.35;100185.16;5009499;28;20045;-51
2022/09/26 09:30:58;;;;;;;16.83;3.20;;;;;;;19.98;58.29;100180.97;5032532;28;20593;-45
2022/09/26 09:33:38;;;;;;;9.52;2.13;;;;;;;20.40;56.89;100178.78;5040998;28;20040;-46
2022/09/26 09:36:13;;;;;;;17.63;3.60;;;;;;;20.64;54.84;100186.03;5035439;28;20069;-43
2022/09/26 09:38:47;;;;;;;10.98;2.15;;;;;;;20.95;53.23;100178.25;5036058;28;20496;-43
2022/09/26 09:41:18;;;;;;;10.95;2.75;;;;;;;21.21;51.24;100172.56;5047661;28;20049;-46
2022/09/26 09:43:53;;;;;;;14.10;3.50;;;;;;;21.46;51.06;100171.28;5035809;28;20116;-43
2022/09/26 09:46:49;;;;;;;13.27;2.65;;;;;;;21.74;50.14;100170.69;5048681;28;20116;-45
2022/09/26 09:49:21;;;;;;;12.80;2.83;;;;;;;21.54;47.99;100172.72;5036145;28;20553;-45
2022/09/26 09:51:59;;;;;;;19.40;3.55;;;;;;;21.40;47.97;100178.63;5047515;28;20076;-44
2022/09/26 09:54:46;;;;;;;9.23;2.58;;;;;;;21.31;46.89;100182.03;5045312;28;20087;-45
2022/09/26 09:57:16;;;;;;;13.77;2.20;;;;;;;21.65;46.85;100173.31;5039867;28;20037;-45
2022/09/26 10:00:09;;;;;;;8.87;2.30;;;;;;;21.71;45.97;100160.31;5050322;28;20056;-44
2022/09/26 10:02:45;;;;;;;;;;;;;;;21.63;47.04;100164.50;5016284;28;20664;-45
2022/09/26 10:05:29;;;;;;;10.82;3.17;;;;;;;21.87;46.02;100182.91;5021408;28;20035;-44
2022/09/26 10:07:57;;;;;;;10.90;2.58;;;;;;;21.40;44.68;100156.91;5011465;28;20049;-44
2022/09/26 10:10:48;;;;;;;14.40;3.72;;;;;;;20.77;45.60;100181.38;5019715;28;20073;-44
2022/09/26 10:13:18;;;;;;;12.98;2.22;;;;;;;20.24;46.27;100187.06;4981706;28;20279;-44
2022/09/26 10:15:57;;;;;;;15.35;2.05;;;;;;;20.03;45.73;100174.06;5022061;28;20049;-44
2022/09/26 10:18:24;;;;;;;11.05;2.30;;;;;;;20.08;45.81;100167.19;5029917;28;20037;-44
2022/09/26 10:20:54;;;;;;;16.40;2.00;;;;;;;20.69;45.09;100165.84;5025224;28;20495;-44
2022/09/26 10:23:26;;;;;;;5.53;1.80;;;;;;;21.23;44.43;100158.06;5007037;28;20075;-44
2022/09/26 10:25:59;;;;;;;7.25;1.70;;;;;;;21.52;43.28;100175.19;5030281;28;20049;-47
2022/09/26 10:28:29;;;;;;;13.40;1.70;;;;;;;21.47;43.01;100167.25;5027262;28;20050;-45
2022/09/26 10:31:09;;;;;;;8.55;1.50;;;;;;;20.96;43.17;100189.09;5019034;28;20052;-44
2022/09/26 10:33:43;;;;;;;12.45;3.05;;;;;;;20.29;43.99;100187.38;5023126;28;20057;-44
2022/09/26 10:36:18;;;;;;;14.10;2.47;;;;;;;19.62;45.58;100196.69;5023939;28;20050;-45
2022/09/26 10:41:44;;;;;;;7.85;1.88;;;;;;;18.14;48.83;100176.34;5002143;28;20056;-49
2022/09/26 10:44:22;;;;;;;6.68;1.95;;;;;;;17.62;49.80;100186.66;5025526;28;20046;-54
2022/09/26 10:46:51;;;;;;;14.18;2.25;;;;;;;17.25;50.52;100183.53;5013910;28;20060;-44
2022/09/26 10:49:22;;;;;;;13.93;1.27;;;;;;;17.16;50.97;100183.16;5022018;28;20402;-47
2022/09/26 10:52:07;;;;;;;9.43;1.30;;;;;;;16.93;51.50;100169.63;5020956;28;20041;-44
2022/09/26 10:54:41;;;;;;;9.45;1.30;;;;;;;16.82;51.93;100193.19;5025853;28;20071;-44
2022/09/26 10:57:18;;;;;;;9.13;1.63;;;;;;;16.50;52.19;100172.81;5023818;28;20183;-44
2022/09/26 10:59:47;;;;;;;7.88;1.52;;;;;;;16.10;52.86;100177.56;5007698;28;20522;-48
2022/09/26 11:02:22;;;;;;;5.78;1.75;;;;;;;15.92;53.44;100175.91;5017649;28;20144;-46
2022/09/26 11:07:45;;;;;;;4.18;0.80;;;;;;;16.04;53.42;100170.78;5025584;28;20052;-47
2022/09/26 11:10:21;;;;;;;12.00;1.17;;;;;;;16.18;53.75;100175.56;5027347;28;20107;-49
2022/09/26 11:13:14;;;;;;;5.95;1.08;;;;;;;16.13;53.88;100159.22;5025499;28;20053;-49
2022/09/26 11:16:12;;;;;;;8.90;2.25;;;;;;;15.95;54.65;100158.38;5022292;28;20051;-45
2022/09/26 11:19:07;;;;;;;4.00;0.80;;;;;;;15.74;54.88;100159.13;5009304;28;20458;-45
2022/09/26 11:21:50;;;;;;;5.10;0.85;;;;;;;15.56;55.63;100145.13;5013169;28;20522;-50
2022/09/26 11:24:42;;;;;;;5.82;1.67;;;;;;;15.43;56.04;100154.19;5029375;28;20041;-47
2022/09/26 11:27:33;;;;;;;5.70;1.38;;;;;;;15.38;56.07;100157.38;5025447;28;20408;-46
2022/09/26 11:30:29;;;;;;;6.03;1.08;;;;;;;15.26;56.17;100150.13;5021875;28;20551;-45
2022/09/26 11:33:04;;;;;;;6.53;1.13;;;;;;;15.17;56.18;100158.84;5020789;28;20049;-46
2022/09/26 11:35:52;;;;;;;5.97;1.20;;;;;;;15.02;56.59;100151.59;5021131;28;20042;-45
2022/09/26 11:38:38;;;;;;;3.65;1.02;;;;;;;14.92;57.05;100143.19;5009005;28;20052;-49
2022/09/26 11:41:36;;;;;;;12.57;1.65;;;;;;;14.74;57.42;100137.50;5024517;28;20529;-47
2022/09/26 11:44:25;;;;;;;6.65;1.27;;;;;;;14.70;57.62;100144.22;5028828;28;20049;-47
2022/09/26 11:47:00;;;;;;;5.63;0.90;;;;;;;14.76;57.96;100137.91;5024281;28;20052;-52
2022/09/26 11:49:51;;;;;;;9.60;1.23;;;;;;;15.00;58.06;100137.25;5022577;28;20050;-45
2022/09/26 11:52:51;;;;;;;5.70;1.30;;;;;;;15.19;58.02;100150.91;5022913;28;20060;-46
2022/09/26 11:55:23;;;;;;;4.45;1.00;;;;;;;15.21;57.93;100147.72;5009726;28;20073;-45
2022/09/26 11:58:15;;;;;;;6.68;1.52;;;;;;;15.27;57.63;100131.41;5009043;28;20045;-46
2022/09/26 12:01:00;;;;;;;;;;;;;;;15.12;57.67;100141.69;5019767;28;21256;-48
2022/09/26 12:03:57;;;;;;;9.27;1.90;;;;;;;15.12;57.96;100139.69;5047609;28;19991;-50
2022/09/26 12:06:32;;;;;;;7.35;1.20;;;;;;;15.16;58.15;100148.09;5033831;28;20049;-45
2022/09/26 12:09:26;;;;;;;6.00;1.25;;;;;;;15.15;58.15;100155.66;5044078;28;20037;-44
2022/09/26 12:12:02;;;;;;;4.05;1.15;;;;;;;15.07;58.10;100156.81;5036295;28;20057;-46
2022/09/26 12:14:52;;;;;;;13.15;1.15;;;;;;;15.03;58.34;100158.78;5014224;28;20056;-44